createdAt,value
2022-11-30T00:01:21.153Z,39.88
2022-11-30T00:03:48.724Z,39.47
2022-11-30T00:06:22.768Z,40.23
2022-11-30T00:08:57.322Z,38.13
2022-11-30T00:11:26.034Z,38.97
2022-11-30T00:13:53.008Z,38.50
2022-11-30T00:16:19.850Z,39.25
2022-11-30T00:18:46.578Z,39.47
2022-11-30T00:21:14.756Z,37.83
2022-11-30T00:23:43.692Z,39.53
2022-11-30T00:26:13.184Z,38.17
2022-11-30T00:28:40.205Z,38.65
2022-11-30T00:31:11.013Z,38.30
2022-11-30T00:33:38.542Z,37.22
2022-11-30T00:36:12.401Z,36.42
2022-11-30T00:38:39.242Z,38.67
2022-11-30T00:41:06.689Z,38.35
2022-11-30T00:43:33.449Z,37.72
2022-11-30T00:46:00.292Z,38.78
2022-11-30T00:48:26.927Z,37.90
2022-11-30T00:50:53.692Z,37.47
2022-11-30T00:53:21.518Z,38.53
2022-11-30T00:55:48.631Z,37.83
2022-11-30T00:58:15.268Z,37.00
2022-11-30T01:00:42.225Z,36.80
2022-11-30T01:03:09.402Z,36.78
2022-11-30T01:05:36.515Z,36.47
2022-11-30T01:08:05.242Z,37.25
2022-11-30T01:10:32.781Z,37.60
2022-11-30T01:12:59.374Z,38.17
2022-11-30T01:15:26.209Z,37.20
2022-11-30T01:17:53.036Z,37.17
2022-11-30T01:20:19.754Z,37.65
2022-11-30T01:22:46.374Z,37.95
2022-11-30T01:25:13.171Z,36.50
2022-11-30T01:27:39.941Z,37.05
2022-11-30T01:30:07.232Z,38.03
2022-11-30T01:32:34.211Z,38.40
2022-11-30T01:35:00.827Z,37.42
2022-11-30T01:37:29.977Z,37.80
2022-11-30T01:39:56.845Z,38.03
2022-11-30T01:42:23.866Z,37.67
2022-11-30T01:44:59.145Z,38.30
2022-11-30T01:47:30.681Z,36.47
2022-11-30T01:50:08.547Z,36.97
2022-11-30T01:52:43.423Z,36.78
2022-11-30T01:55:26.920Z,35.97
2022-11-30T01:58:09.481Z,35.53
2022-11-30T02:00:36.081Z,36.33
2022-11-30T02:03:28.935Z,35.93
2022-11-30T02:05:55.647Z,36.50
2022-11-30T02:08:22.604Z,36.43
2022-11-30T02:10:58.336Z,36.13
2022-11-30T02:13:40.460Z,35.83
2022-11-30T02:16:13.048Z,34.83
2022-11-30T02:18:58.470Z,33.92
2022-11-30T02:21:54.816Z,35.47
2022-11-30T02:24:40.532Z,36.20
2022-11-30T02:27:42.756Z,34.97
2022-11-30T02:30:16.488Z,35.93
2022-11-30T02:32:48.426Z,36.30
2022-11-30T02:35:18.846Z,34.38
2022-11-30T02:37:46.795Z,35.03
2022-11-30T02:40:20.209Z,33.40
2022-11-30T02:42:50.350Z,35.65
2022-11-30T02:45:19.313Z,35.03
2022-11-30T02:47:59.341Z,36.77
2022-11-30T02:50:30.608Z,35.58
2022-11-30T02:52:57.780Z,34.97
2022-11-30T02:55:24.522Z,34.40
2022-11-30T02:57:51.283Z,36.17
2022-11-30T03:00:18.482Z,34.80
2022-11-30T03:02:45.099Z,36.03
2022-11-30T03:05:11.846Z,33.40
2022-11-30T03:07:38.941Z,35.40
2022-11-30T03:10:07.009Z,36.13
2022-11-30T03:12:34.015Z,34.97
2022-11-30T03:15:00.756Z,34.25
2022-11-30T03:17:27.654Z,35.15
2022-11-30T03:19:54.352Z,33.38
2022-11-30T03:22:20.990Z,34.65
2022-11-30T03:24:47.908Z,34.10
2022-11-30T03:27:14.917Z,36.03
2022-11-30T03:29:41.594Z,34.30
2022-11-30T03:32:08.182Z,34.53
2022-11-30T03:34:34.868Z,34.00
2022-11-30T03:37:01.522Z,34.87
2022-11-30T03:39:28.283Z,35.20
2022-11-30T03:41:55.002Z,35.97
2022-11-30T03:44:21.676Z,34.00
2022-11-30T03:46:48.436Z,35.33
2022-11-30T03:49:15.111Z,36.13
2022-11-30T03:51:41.681Z,35.93
2022-11-30T03:54:08.347Z,37.07
2022-11-30T03:56:34.966Z,38.83
2022-11-30T03:59:01.548Z,37.70
2022-11-30T04:01:28.434Z,38.20
2022-11-30T04:03:55.220Z,38.47
2022-11-30T04:06:21.913Z,37.57
2022-11-30T04:08:48.583Z,37.95
2022-11-30T04:11:15.542Z,39.03
2022-11-30T04:13:42.650Z,39.10
2022-11-30T04:16:09.957Z,36.55
2022-11-30T04:18:37.693Z,39.20
2022-11-30T04:21:06.658Z,37.88
2022-11-30T04:23:35.791Z,36.47
2022-11-30T04:26:07.915Z,38.90
2022-11-30T04:28:35.203Z,35.63
2022-11-30T04:31:02.758Z,36.38
2022-11-30T04:33:29.927Z,35.70
2022-11-30T04:35:59.044Z,34.30
2022-11-30T04:38:26.562Z,33.35
2022-11-30T04:40:53.950Z,36.00
2022-11-30T04:43:20.744Z,35.55
2022-11-30T04:45:47.872Z,36.67
2022-11-30T04:48:15.893Z,34.45
2022-11-30T04:50:42.643Z,35.28
2022-11-30T04:53:09.686Z,35.40
2022-11-30T04:55:38.273Z,37.80
2022-11-30T04:58:05.605Z,35.80
2022-11-30T05:00:33.133Z,34.70
2022-11-30T05:02:59.817Z,35.10
2022-11-30T05:05:26.475Z,36.28
2022-11-30T05:07:58.511Z,37.15
2022-11-30T05:10:26.521Z,36.33
2022-11-30T05:12:53.211Z,37.97
2022-11-30T05:15:20.140Z,35.45
2022-11-30T05:17:46.808Z,35.25
2022-11-30T05:20:13.914Z,34.92
2022-11-30T05:22:40.526Z,35.55
2022-11-30T05:25:07.953Z,35.88
2022-11-30T05:27:35.287Z,36.95
2022-11-30T05:30:02.579Z,35.22
2022-11-30T05:32:29.180Z,36.08
2022-11-30T05:34:55.971Z,35.60
2022-11-30T05:37:22.637Z,37.78
2022-11-30T05:39:49.241Z,37.10
2022-11-30T05:42:15.819Z,36.40
2022-11-30T05:44:43.026Z,37.17
2022-11-30T05:47:09.753Z,38.80
2022-11-30T05:49:36.421Z,36.78
2022-11-30T05:52:03.113Z,35.13
2022-11-30T05:54:29.702Z,36.67
2022-11-30T05:56:56.359Z,37.17
2022-11-30T05:59:23.617Z,37.80
2022-11-30T06:01:52.687Z,37.90
2022-11-30T06:04:20.033Z,37.80
2022-11-30T06:06:46.853Z,38.00
2022-11-30T06:09:13.429Z,36.65
2022-11-30T06:11:40.072Z,40.17
2022-11-30T06:14:06.743Z,39.08
2022-11-30T06:16:33.441Z,38.83
2022-11-30T06:19:00.082Z,39.40
2022-11-30T06:21:26.722Z,37.43
2022-11-30T06:23:53.276Z,40.03
2022-11-30T06:26:19.909Z,39.50
2022-11-30T06:28:48.377Z,40.17
2022-11-30T06:31:16.199Z,38.43
2022-11-30T06:33:43.113Z,39.33
2022-11-30T06:36:10.393Z,39.17
2022-11-30T06:38:37.237Z,38.80
2022-11-30T06:41:08.557Z,38.73
2022-11-30T06:43:36.691Z,39.30
2022-11-30T06:46:04.021Z,39.35
2022-11-30T06:48:30.722Z,40.05
2022-11-30T06:50:58.477Z,38.97
2022-11-30T06:53:25.385Z,38.50
2022-11-30T06:55:52.466Z,39.30
2022-11-30T06:58:19.296Z,39.08
2022-11-30T07:00:46.190Z,39.93
2022-11-30T07:03:14.683Z,38.57
2022-11-30T07:05:45.970Z,39.97
2022-11-30T07:08:14.218Z,39.40
2022-11-30T07:10:45.587Z,39.10
2022-11-30T07:13:13.877Z,37.50
2022-11-30T07:15:41.280Z,38.07
2022-11-30T07:18:08.776Z,36.80
2022-11-30T07:20:35.819Z,38.35
2022-11-30T07:23:22.737Z,38.70
2022-11-30T07:26:06.567Z,36.60
2022-11-30T07:28:34.851Z,37.97
2022-11-30T07:31:01.897Z,38.90
2022-11-30T07:33:28.541Z,38.20
2022-11-30T07:35:55.277Z,38.17
2022-11-30T07:38:21.852Z,36.13
2022-11-30T07:40:48.440Z,35.92
2022-11-30T07:43:15.669Z,36.97
2022-11-30T07:45:42.398Z,37.37
2022-11-30T07:48:09.762Z,37.30
2022-11-30T07:50:36.345Z,38.03
2022-11-30T07:53:02.943Z,39.03
2022-11-30T07:55:29.491Z,39.30
2022-11-30T07:57:56.089Z,38.70
2022-11-30T08:00:22.666Z,38.80
2022-11-30T08:02:50.699Z,38.65
2022-11-30T08:05:17.425Z,38.57
2022-11-30T08:07:45.765Z,38.00
2022-11-30T08:10:12.395Z,37.83
2022-11-30T08:12:39.004Z,38.60
2022-11-30T08:15:27.415Z,40.40
2022-11-30T08:17:55.168Z,40.17
2022-11-30T08:20:22.259Z,38.93
2022-11-30T08:22:49.193Z,38.45
2022-11-30T08:25:15.772Z,40.40
2022-11-30T08:27:42.310Z,40.20
2022-11-30T08:30:09.390Z,38.83
2022-11-30T08:32:35.933Z,38.23
2022-11-30T08:35:02.616Z,38.15
2022-11-30T08:37:29.163Z,39.85
2022-11-30T08:39:55.697Z,38.40
2022-11-30T08:42:22.320Z,39.05
2022-11-30T08:44:48.846Z,39.95
2022-11-30T08:47:15.451Z,38.25
2022-11-30T08:49:42.017Z,40.05
2022-11-30T08:52:17.404Z,41.03
2022-11-30T08:54:46.679Z,41.33
2022-11-30T08:57:18.457Z,39.38
2022-11-30T08:59:45.335Z,42.17
2022-11-30T09:02:14.452Z,42.30
2022-11-30T09:04:41.070Z,43.03
2022-11-30T09:07:09.424Z,39.47
2022-11-30T09:09:36.893Z,40.38
2022-11-30T09:12:03.740Z,40.70
2022-11-30T09:14:30.458Z,41.22
2022-11-30T09:16:57.004Z,39.03
2022-11-30T09:19:24.579Z,40.25
2022-11-30T09:21:52.443Z,40.20
2022-11-30T09:24:20.326Z,40.17
2022-11-30T09:26:47.101Z,39.30
2022-11-30T09:29:13.653Z,39.33
2022-11-30T09:31:40.223Z,39.88
2022-11-30T09:34:06.798Z,39.00
2022-11-30T09:36:33.977Z,38.10
2022-11-30T09:39:00.621Z,40.03
2022-11-30T09:41:54.462Z,38.95
2022-11-30T09:44:49.162Z,38.10
2022-11-30T09:47:37.913Z,35.85
2022-11-30T09:50:18.591Z,38.70
2022-11-30T09:52:52.201Z,38.45
2022-11-30T09:55:27.358Z,36.72
2022-11-30T09:57:58.295Z,38.78
2022-11-30T10:00:25.327Z,38.08
2022-11-30T10:02:57.364Z,36.17
2022-11-30T10:05:39.993Z,36.80
2022-11-30T10:08:30.309Z,37.50
2022-11-30T10:11:30.457Z,37.70
2022-11-30T10:14:16.098Z,36.45
2022-11-30T10:16:49.252Z,36.28
2022-11-30T10:19:45.066Z,35.25
2022-11-30T10:22:45.427Z,34.30
2022-11-30T10:25:13.796Z,35.72
2022-11-30T10:28:44.877Z,35.67
2022-11-30T10:31:03.789Z,37.00
2022-11-30T10:33:40.537Z,36.30
2022-11-30T10:36:15.413Z,34.90
2022-11-30T10:38:53.022Z,35.42
2022-11-30T10:41:28.697Z,34.80
2022-11-30T10:44:01.382Z,35.83
2022-11-30T10:46:32.700Z,33.88
2022-11-30T10:49:12.437Z,36.08
2022-11-30T10:51:42.182Z,34.35
2022-11-30T10:54:18.731Z,32.78
2022-11-30T10:56:46.043Z,33.20
2022-11-30T10:59:22.156Z,32.72
2022-11-30T11:01:48.857Z,33.80
2022-11-30T11:04:18.469Z,33.08
2022-11-30T11:06:55.341Z,33.95
2022-11-30T11:09:33.861Z,32.45
2022-11-30T11:12:22.449Z,31.83
2022-11-30T11:14:49.119Z,32.38
2022-11-30T11:17:18.652Z,33.00
2022-11-30T11:19:47.702Z,31.40
2022-11-30T11:22:21.367Z,31.95
2022-11-30T11:24:50.371Z,31.98
2022-11-30T11:27:24.967Z,31.02
2022-11-30T11:30:27.371Z,30.38
2022-11-30T11:33:04.948Z,30.80
2022-11-30T11:35:56.058Z,30.17
2022-11-30T11:38:46.249Z,29.60
2022-11-30T11:41:25.468Z,31.38
2022-11-30T11:44:09.327Z,29.52
2022-11-30T11:46:55.702Z,29.17
2022-11-30T11:49:36.751Z,29.42
2022-11-30T11:52:05.692Z,28.38
2022-11-30T11:54:34.990Z,27.77
2022-11-30T11:57:02.298Z,27.50
2022-11-30T11:59:45.447Z,28.33
2022-11-30T12:02:37.071Z,26.10
2022-11-30T12:05:15.499Z,25.20
2022-11-30T12:07:58.813Z,26.02
2022-11-30T12:13:23.320Z,25.73
2022-11-30T12:16:19.631Z,25.95
2022-11-30T12:19:01.364Z,24.75
2022-11-30T12:22:05.740Z,25.92
2022-11-30T12:25:06.751Z,24.70
2022-11-30T12:27:54.891Z,23.65
2022-11-30T12:30:28.458Z,23.85
2022-11-30T12:33:16.759Z,23.45
2022-11-30T12:35:58.728Z,23.60
2022-11-30T12:38:50.747Z,23.65
2022-11-30T12:41:23.258Z,24.90
2022-11-30T12:44:02.187Z,24.02
2022-11-30T12:47:02.734Z,23.33
2022-11-30T12:49:53.029Z,24.42
2022-11-30T12:52:47.583Z,28.00
2022-11-30T12:55:41.868Z,28.35
2022-11-30T12:58:34.576Z,29.95
2022-11-30T13:01:22.882Z,30.35
2022-11-30T13:04:20.198Z,30.77
2022-11-30T13:06:59.721Z,30.00
2022-11-30T13:09:43.772Z,29.05
2022-11-30T13:12:16.337Z,29.13
2022-11-30T13:14:43.376Z,29.23
2022-11-30T13:17:19.052Z,28.42
2022-11-30T13:20:09.487Z,27.85
2022-11-30T13:23:06.144Z,26.73
2022-11-30T13:26:09.009Z,27.13
2022-11-30T13:28:50.162Z,26.50
2022-11-30T13:31:55.978Z,26.33
2022-11-30T13:34:26.033Z,25.15
2022-11-30T13:37:02.092Z,27.35
2022-11-30T13:39:58.525Z,28.10
2022-11-30T13:42:34.248Z,26.13
2022-11-30T13:45:13.233Z,25.70
2022-11-30T13:47:43.439Z,25.45
2022-11-30T13:50:34.510Z,25.77
2022-11-30T13:53:06.941Z,25.20
2022-11-30T13:55:46.261Z,25.92
2022-11-30T13:58:15.611Z,24.90
2022-11-30T14:00:42.529Z,25.75
2022-11-30T14:03:21.249Z,26.52
2022-11-30T14:06:11.068Z,24.98
2022-11-30T14:08:38.795Z,27.67
2022-11-30T14:11:17.564Z,27.98
2022-11-30T14:13:44.791Z,30.17
2022-11-30T14:16:24.664Z,27.33
2022-11-30T14:18:51.500Z,24.77
2022-11-30T14:21:28.978Z,24.40
2022-11-30T14:24:14.050Z,24.90
2022-11-30T14:26:44.667Z,25.52
2022-11-30T14:29:16.824Z,26.70
2022-11-30T14:32:00.981Z,27.80
2022-11-30T14:34:37.112Z,26.52
2022-11-30T14:37:13.341Z,27.20
2022-11-30T14:39:45.760Z,29.33
2022-11-30T14:42:24.797Z,33.28
2022-11-30T14:44:51.746Z,29.52
2022-11-30T14:47:23.762Z,29.17
2022-11-30T14:49:52.858Z,30.40
2022-11-30T14:52:41.365Z,30.00
2022-11-30T14:55:14.156Z,29.85
2022-11-30T14:58:04.027Z,30.58
2022-11-30T15:00:39.443Z,31.42
2022-11-30T15:03:31.871Z,29.35
2022-11-30T15:06:03.739Z,31.23
2022-11-30T15:08:43.118Z,31.55
2022-11-30T15:11:12.308Z,30.10
2022-11-30T15:13:49.417Z,31.23
2022-11-30T15:16:20.719Z,29.85
2022-11-30T15:18:48.418Z,30.85
2022-11-30T15:21:22.245Z,30.90
2022-11-30T15:23:51.478Z,30.45
2022-11-30T15:26:32.187Z,29.90
2022-11-30T15:29:02.532Z,29.85
2022-11-30T15:31:35.859Z,29.20
2022-11-30T15:34:03.216Z,30.15
2022-11-30T15:36:38.179Z,30.53
2022-11-30T15:39:07.480Z,38.33
2022-11-30T15:41:35.422Z,32.10
2022-11-30T15:44:02.368Z,32.25
2022-11-30T15:46:34.837Z,31.65
2022-11-30T15:49:22.519Z,30.80
2022-11-30T15:52:14.412Z,31.17
2022-11-30T15:54:53.018Z,30.23
2022-11-30T15:57:20.452Z,31.73
2022-11-30T16:00:22.749Z,29.88
2022-11-30T16:02:49.479Z,31.08
2022-11-30T16:05:17.472Z,31.20
2022-11-30T16:07:57.277Z,30.20
2022-11-30T16:10:27.342Z,29.83
2022-11-30T16:12:55.481Z,30.63
2022-11-30T16:15:30.548Z,30.70
2022-11-30T16:18:22.940Z,32.27
2022-11-30T16:21:01.289Z,28.80
2022-11-30T16:23:28.571Z,31.08
2022-11-30T16:25:55.586Z,31.15
2022-11-30T16:28:23.996Z,30.77
2022-11-30T16:30:51.227Z,31.05
2022-11-30T16:33:23.414Z,30.95
2022-11-30T16:36:20.255Z,29.83
2022-11-30T16:38:49.216Z,29.95
2022-11-30T16:41:21.162Z,30.77
2022-11-30T16:43:50.658Z,32.80
2022-11-30T16:46:20.292Z,33.35
2022-11-30T16:48:47.694Z,31.48
2022-11-30T16:51:27.078Z,30.58
2022-11-30T16:53:54.015Z,30.38
2022-11-30T16:56:20.898Z,32.15
2022-11-30T16:58:47.771Z,32.33
2022-11-30T17:01:33.384Z,30.87
2022-11-30T17:04:10.438Z,30.27
2022-11-30T17:06:37.403Z,30.10
2022-11-30T17:09:04.854Z,31.33
2022-11-30T17:11:38.129Z,30.35
2022-11-30T17:14:05.400Z,29.52
2022-11-30T17:16:33.108Z,33.70
2022-11-30T17:19:00.098Z,31.45
2022-11-30T17:21:30.217Z,31.15
2022-11-30T17:23:57.631Z,31.90
2022-11-30T17:26:24.953Z,31.17
2022-11-30T17:28:51.872Z,31.55
2022-11-30T17:31:19.545Z,31.33
2022-11-30T17:33:48.577Z,43.63
2022-11-30T17:36:16.450Z,32.40
2022-11-30T17:38:44.298Z,33.78
2022-11-30T17:41:19.105Z,32.03
2022-11-30T17:43:47.573Z,32.10
2022-11-30T17:46:17.061Z,31.17
2022-11-30T17:48:44.928Z,29.85
2022-11-30T17:51:12.904Z,30.13
2022-11-30T17:53:40.979Z,29.35
2022-11-30T17:56:09.266Z,30.13
2022-11-30T17:58:43.855Z,31.83
2022-11-30T18:01:29.828Z,30.90
2022-11-30T18:03:57.026Z,29.45
2022-11-30T18:06:24.376Z,31.42
2022-11-30T18:08:51.320Z,30.02
2022-11-30T18:11:20.571Z,30.50
2022-11-30T18:13:49.953Z,32.08
2022-11-30T18:16:19.374Z,33.30
2022-11-30T18:18:48.504Z,33.67
2022-11-30T18:21:19.114Z,31.65
2022-11-30T18:23:46.639Z,30.75
2022-11-30T18:26:16.935Z,32.22
2022-11-30T18:28:44.190Z,31.17
2022-11-30T18:31:11.307Z,32.28
2022-11-30T18:33:38.896Z,31.15
2022-11-30T18:36:07.782Z,29.98
2022-11-30T18:38:38.292Z,32.53
2022-11-30T18:41:05.986Z,30.88
2022-11-30T18:43:34.049Z,32.10
2022-11-30T18:46:06.495Z,32.63
2022-11-30T18:48:33.979Z,31.58
2022-11-30T18:51:16.083Z,34.53
2022-11-30T18:53:43.537Z,35.00
2022-11-30T18:56:20.927Z,31.65
2022-11-30T18:58:48.387Z,33.78
2022-11-30T19:01:18.854Z,32.70
2022-11-30T19:03:53.844Z,34.70
2022-11-30T19:06:20.894Z,32.60
2022-11-30T19:08:48.470Z,33.40
2022-11-30T19:11:17.344Z,32.05
2022-11-30T19:13:45.209Z,31.83
2022-11-30T19:16:15.824Z,30.63
2022-11-30T19:18:45.139Z,34.25
2022-11-30T19:21:14.751Z,32.53
2022-11-30T19:23:42.005Z,31.70
2022-11-30T19:26:10.285Z,31.88
2022-11-30T19:28:38.895Z,29.10
2022-11-30T19:31:11.664Z,30.42
2022-11-30T19:33:40.067Z,28.92
2022-11-30T19:36:10.168Z,31.93
2022-11-30T19:38:36.824Z,30.33
2022-11-30T19:41:11.608Z,30.05
2022-11-30T19:43:38.788Z,29.83
2022-11-30T19:46:07.890Z,30.75
2022-11-30T19:48:35.289Z,28.70
2022-11-30T19:51:17.946Z,30.92
2022-11-30T19:53:45.606Z,27.80
2022-11-30T19:56:15.604Z,30.52
2022-11-30T19:58:43.880Z,29.90
2022-11-30T20:01:15.009Z,29.73
2022-11-30T20:03:42.342Z,31.27
2022-11-30T20:06:08.946Z,28.75
2022-11-30T20:08:38.337Z,29.35
2022-11-30T20:11:09.460Z,30.25
2022-11-30T20:13:36.223Z,28.95
2022-11-30T20:16:11.497Z,29.88
2022-11-30T20:18:42.726Z,27.77
2022-11-30T20:21:18.873Z,29.08
2022-11-30T20:23:47.269Z,28.60
2022-11-30T20:26:23.614Z,27.58
2022-11-30T20:28:51.285Z,28.17
2022-11-30T20:31:19.979Z,28.83
2022-11-30T20:33:47.204Z,28.73
2022-11-30T20:36:15.853Z,28.95
2022-11-30T20:38:42.874Z,27.55
2022-11-30T20:41:14.996Z,27.38
2022-11-30T20:43:43.522Z,28.42
2022-11-30T20:46:16.174Z,26.53
2022-11-30T20:48:43.333Z,27.02
2022-11-30T20:51:30.239Z,27.98
2022-11-30T20:53:59.626Z,27.30
2022-11-30T20:56:26.226Z,28.20
2022-11-30T20:58:52.800Z,26.65
2022-11-30T21:01:21.863Z,26.25
2022-11-30T21:03:48.740Z,26.60
2022-11-30T21:06:15.587Z,27.85
2022-11-30T21:08:42.486Z,26.87
2022-11-30T21:11:18.138Z,28.80
2022-11-30T21:13:46.512Z,26.43
2022-11-30T21:16:15.067Z,28.20
2022-11-30T21:18:44.104Z,26.38
2022-11-30T21:21:17.045Z,26.98
2022-11-30T21:23:45.133Z,25.67
2022-11-30T21:26:31.277Z,26.35
2022-11-30T21:29:03.795Z,26.98
2022-11-30T21:31:31.253Z,26.53
2022-11-30T21:33:58.250Z,27.67
2022-11-30T21:36:24.974Z,26.77
2022-11-30T21:39:05.572Z,26.85
2022-11-30T21:41:38.218Z,27.30
2022-11-30T21:44:06.112Z,27.35
2022-11-30T21:46:32.914Z,27.63
2022-11-30T21:49:00.100Z,26.85
2022-11-30T21:51:28.301Z,28.30
2022-11-30T21:53:58.655Z,27.80
2022-11-30T21:56:27.583Z,28.88
2022-11-30T21:58:54.483Z,27.17
2022-11-30T22:01:36.408Z,29.42
2022-11-30T22:04:05.278Z,28.23
2022-11-30T22:06:33.928Z,28.83
2022-11-30T22:09:03.494Z,28.13
2022-11-30T22:11:31.016Z,27.73
2022-11-30T22:13:57.705Z,29.48
2022-11-30T22:16:29.916Z,27.75
2022-11-30T22:19:01.073Z,29.20
2022-11-30T22:21:29.850Z,28.00
2022-11-30T22:24:01.636Z,26.92
2022-11-30T22:26:30.428Z,28.77
2022-11-30T22:28:59.757Z,29.08
2022-11-30T22:31:32.182Z,29.02
2022-11-30T22:33:59.016Z,28.60
2022-11-30T22:36:28.344Z,27.70
2022-11-30T22:38:57.044Z,28.30
2022-11-30T22:41:24.754Z,26.95
2022-11-30T22:43:51.951Z,27.60
2022-11-30T22:46:30.242Z,28.95
2022-11-30T22:49:01.883Z,28.93
2022-11-30T22:51:30.138Z,28.97
2022-11-30T22:53:57.701Z,29.83
2022-11-30T22:56:26.714Z,28.58
2022-11-30T22:58:55.620Z,29.65
2022-11-30T23:01:27.724Z,29.07
2022-11-30T23:03:56.344Z,29.55
2022-11-30T23:06:24.241Z,29.48
2022-11-30T23:08:52.324Z,28.85
2022-11-30T23:11:22.267Z,29.35
2022-11-30T23:13:49.205Z,27.67
2022-11-30T23:16:16.328Z,28.13
2022-11-30T23:18:48.420Z,28.17
2022-11-30T23:21:21.419Z,30.40
2022-11-30T23:23:48.533Z,28.20
2022-11-30T23:26:23.734Z,30.42
2022-11-30T23:28:52.005Z,28.33
2022-11-30T23:31:32.433Z,29.20
2022-11-30T23:34:01.942Z,29.15
2022-11-30T23:36:28.567Z,29.75
2022-11-30T23:39:01.222Z,30.20
2022-11-30T23:41:28.201Z,29.40
2022-11-30T23:43:55.221Z,28.67
2022-11-30T23:46:22.081Z,29.15
2022-11-30T23:48:49.024Z,28.05
2022-11-30T23:51:15.625Z,29.83
2022-11-30T23:53:42.566Z,30.48
2022-11-30T23:56:12.880Z,29.67
2022-11-30T23:58:42.206Z,30.93
